Fairchild Air Force Base, WA

4:46 PM PST on February 28, 2015 (GMT -0800)
In town | Change Station
CLOSE
Current Station
Personal Weather Station
Location: Medical Lake, WA
Elevation: 2421 ft
Nearby Weather Stations

Elev 2421 ft 47.58 °N, 117.69 °W | Updated 6 minutes ago

Clear
Clear
40.8 °F
Feels Like 38 °F
N
4.7
Wind Variable Wind from NNW

Today
High -- | Low -- °F
--% Chance of Precip.
Yesterday
High -- | Low -- °F
Precip. -- in
6:33 AM 5:33 PM
Waxing Gibbous, 81% visible
Pressure 30.17 in
Visibility 10.0 miles
Clouds Clear
Windchill 38 °F
Dew Point 3 °F
Humidity 20%
Rainfall 0.02 in
Snow Depth Not available.
UV 1 out of 12
Pollen 4.20 out of 12
Air Quality Not available.
Flu Activity Not available.
METAR KSKA 282358Z AUTO 02009KT 10SM CLR 05/M16 A3010 RMK AO2 UPB10E25 SLP214 P0000 60000 T00491161 10053 20012 400751029 53003

More Conditions Fewer Conditions

Pressure 30.17 in
Visibility 10.0 miles
Clouds Clear
Windchill 38 °F
Dew Point 3 °F
Humidity 20%
Rainfall 0.02 in
Snow Depth Not available.
UV 1 out of 12
Pollen 4.20 out of 12
Air Quality Not available.
Flu Activity Not available.
METAR KSKA 282358Z AUTO 02009KT 10SM CLR 05/M16 A3010 RMK AO2 UPB10E25 SLP214 P0000 60000 T00491161 10053 20012 400751029 53003

More Conditions Fewer Conditions

10-Day Weather Forecast

Almanac

Astronomy

Feb. 28, 2015 Rise Set
Actual Time
Civil Twilight
Nautical Twilight
Astronomical Twilight
Moon
Length of Visible Light
Length of Day
Tomorrow will be .
, % of the Moon is Illuminated

Today's Extremes

State Highs State Lows

Community

WunderPhotos

Upload Photos

1,801,194 photos uploaded!

WunderBlogs® & News

Nearby

Air Quality

  Air Quality AQ Index Pollutant
Not available.

Snow Depth

Station Depth Elevation

Earthquake Activity

City Distance Mag. Time & Date
Minimum magnitude displayed is 2.5.

Coastal Water Temperatures

Place Temperature

Nearby Weather Stations